sensor_id;sensor_type;location;lat;lon;timestamp;temperature;humidity
6540;DHT22;50344;51.142;16.892;2024-02-21T00:01:17;22.40;39.80
6540;DHT22;50344;51.142;16.892;2024-02-21T00:03:43;22.50;40.10
6540;DHT22;50344;51.142;16.892;2024-02-21T00:06:09;22.50;39.90
6540;DHT22;50344;51.142;16.892;2024-02-21T00:08:34;22.50;39.90
6540;DHT22;50344;51.142;16.892;2024-02-21T00:11:00;22.50;39.80
6540;DHT22;50344;51.142;16.892;2024-02-21T00:13:25;22.50;39.90
6540;DHT22;50344;51.142;16.892;2024-02-21T00:15:51;22.50;39.80
6540;DHT22;50344;51.142;16.892;2024-02-21T00:18:17;22.10;39.70
6540;DHT22;50344;51.142;16.892;2024-02-21T00:20:42;22.50;39.90
6540;DHT22;50344;51.142;16.892;2024-02-21T00:23:08;22.50;39.80
6540;DHT22;50344;51.142;16.892;2024-02-21T00:25:34;22.50;39.80
6540;DHT22;50344;51.142;16.892;2024-02-21T00:27:59;22.50;39.90
6540;DHT22;50344;51.142;16.892;2024-02-21T00:30:25;22.50;39.80
6540;DHT22;50344;51.142;16.892;2024-02-21T00:32:51;22.50;39.70
6540;DHT22;50344;51.142;16.892;2024-02-21T00:35:16;22.50;39.70
6540;DHT22;50344;51.142;16.892;2024-02-21T00:37:42;22.50;39.90
6540;DHT22;50344;51.142;16.892;2024-02-21T00:40:08;22.40;39.80
6540;DHT22;50344;51.142;16.892;2024-02-21T00:42:33;22.50;39.80
6540;DHT22;50344;51.142;16.892;2024-02-21T00:44:59;22.50;40.50
6540;DHT22;50344;51.142;16.892;2024-02-21T00:47:24;22.50;39.80
6540;DHT22;50344;51.142;16.892;2024-02-21T00:49:50;22.50;39.80
6540;DHT22;50344;51.142;16.892;2024-02-21T00:52:15;22.50;39.90
6540;DHT22;50344;51.142;16.892;2024-02-21T00:54:41;22.50;39.70
6540;DHT22;50344;51.142;16.892;2024-02-21T00:57:07;22.50;39.80
6540;DHT22;50344;51.142;16.892;2024-02-21T00:59:32;22.40;39.60
6540;DHT22;50344;51.142;16.892;2024-02-21T01:01:58;22.40;39.60
6540;DHT22;50344;51.142;16.892;2024-02-21T01:04:23;22.40;39.50
6540;DHT22;50344;51.142;16.892;2024-02-21T01:06:50;22.50;39.70
6540;DHT22;50344;51.142;16.892;2024-02-21T01:09:15;22.40;39.60
6540;DHT22;50344;51.142;16.892;2024-02-21T01:11:41;22.40;39.60
6540;DHT22;50344;51.142;16.892;2024-02-21T01:14:06;22.40;39.60
6540;DHT22;50344;51.142;16.892;2024-02-21T01:16:32;22.40;39.60
6540;DHT22;50344;51.142;16.892;2024-02-21T01:18:58;22.40;39.60
6540;DHT22;50344;51.142;16.892;2024-02-21T01:21:23;22.40;39.60
6540;DHT22;50344;51.142;16.892;2024-02-21T01:23:49;22.40;39.60
6540;DHT22;50344;51.142;16.892;2024-02-21T01:26:14;22.40;39.60
6540;DHT22;50344;51.142;16.892;2024-02-21T01:28:41;22.40;39.60
6540;DHT22;50344;51.142;16.892;2024-02-21T01:31:06;22.40;39.60
6540;DHT22;50344;51.142;16.892;2024-02-21T01:33:32;22.40;39.50
6540;DHT22;50344;51.142;16.892;2024-02-21T01:36:03;22.40;39.50
6540;DHT22;50344;51.142;16.892;2024-02-21T01:38:29;22.40;39.50
6540;DHT22;50344;51.142;16.892;2024-02-21T01:40:55;22.40;39.50
6540;DHT22;50344;51.142;16.892;2024-02-21T01:43:21;22.40;39.50
6540;DHT22;50344;51.142;16.892;2024-02-21T01:45:51;22.40;39.50
6540;DHT22;50344;51.142;16.892;2024-02-21T01:48:17;22.40;39.40
6540;DHT22;50344;51.142;16.892;2024-02-21T01:50:44;22.40;39.50
6540;DHT22;50344;51.142;16.892;2024-02-21T01:53:10;22.40;39.50
6540;DHT22;50344;51.142;16.892;2024-02-21T01:55:36;22.40;39.40
6540;DHT22;50344;51.142;16.892;2024-02-21T01:58:01;22.40;39.50
6540;DHT22;50344;51.142;16.892;2024-02-21T02:00:27;22.40;39.40
6540;DHT22;50344;51.142;16.892;2024-02-21T02:02:53;22.40;39.40
6540;DHT22;50344;51.142;16.892;2024-02-21T02:05:19;22.40;39.50
6540;DHT22;50344;51.142;16.892;2024-02-21T02:07:46;22.40;39.40
6540;DHT22;50344;51.142;16.892;2024-02-21T02:10:12;22.40;39.40
6540;DHT22;50344;51.142;16.892;2024-02-21T02:12:38;22.40;39.40
6540;DHT22;50344;51.142;16.892;2024-02-21T02:15:03;22.40;39.40
6540;DHT22;50344;51.142;16.892;2024-02-21T02:17:32;22.40;39.30
6540;DHT22;50344;51.142;16.892;2024-02-21T02:19:57;22.40;39.30
6540;DHT22;50344;51.142;16.892;2024-02-21T02:22:27;22.40;40.10
6540;DHT22;50344;51.142;16.892;2024-02-21T02:24:53;22.40;39.40
6540;DHT22;50344;51.142;16.892;2024-02-21T02:27:19;22.40;39.40
6540;DHT22;50344;51.142;16.892;2024-02-21T02:29:44;22.40;39.40
6540;DHT22;50344;51.142;16.892;2024-02-21T02:32:10;22.70;39.60
6540;DHT22;50344;51.142;16.892;2024-02-21T02:34:36;22.40;39.40
6540;DHT22;50344;51.142;16.892;2024-02-21T02:37:02;22.40;39.30
6540;DHT22;50344;51.142;16.892;2024-02-21T02:39:27;22.40;39.30
6540;DHT22;50344;51.142;16.892;2024-02-21T02:41:53;22.40;39.40
6540;DHT22;50344;51.142;16.892;2024-02-21T02:44:18;22.40;39.40
6540;DHT22;50344;51.142;16.892;2024-02-21T02:46:44;22.40;39.40
6540;DHT22;50344;51.142;16.892;2024-02-21T02:49:09;22.40;39.40
6540;DHT22;50344;51.142;16.892;2024-02-21T02:51:35;22.40;39.40
6540;DHT22;50344;51.142;16.892;2024-02-21T02:54:01;22.40;39.30
6540;DHT22;50344;51.142;16.892;2024-02-21T02:56:27;22.40;39.30
6540;DHT22;50344;51.142;16.892;2024-02-21T02:58:52;22.40;39.30
6540;DHT22;50344;51.142;16.892;2024-02-21T03:01:18;22.40;39.30
6540;DHT22;50344;51.142;16.892;2024-02-21T03:03:44;22.40;39.30
6540;DHT22;50344;51.142;16.892;2024-02-21T03:06:12;22.40;39.20
6540;DHT22;50344;51.142;16.892;2024-02-21T03:08:37;22.40;39.20
6540;DHT22;50344;51.142;16.892;2024-02-21T03:11:03;22.40;39.20
6540;DHT22;50344;51.142;16.892;2024-02-21T03:13:28;22.40;39.20
6540;DHT22;50344;51.142;16.892;2024-02-21T03:15:54;22.40;39.30
6540;DHT22;50344;51.142;16.892;2024-02-21T03:18:20;22.40;39.20
6540;DHT22;50344;51.142;16.892;2024-02-21T03:20:45;22.40;39.20
6540;DHT22;50344;51.142;16.892;2024-02-21T03:23:11;22.40;39.10
6540;DHT22;50344;51.142;16.892;2024-02-21T03:25:37;22.40;39.20
6540;DHT22;50344;51.142;16.892;2024-02-21T03:28:02;22.40;39.10
6540;DHT22;50344;51.142;16.892;2024-02-21T03:30:28;22.40;39.20
6540;DHT22;50344;51.142;16.892;2024-02-21T03:32:54;22.40;39.20
6540;DHT22;50344;51.142;16.892;2024-02-21T03:35:20;22.40;39.10
6540;DHT22;50344;51.142;16.892;2024-02-21T03:37:45;22.40;39.10
6540;DHT22;50344;51.142;16.892;2024-02-21T03:40:11;22.40;39.10
6540;DHT22;50344;51.142;16.892;2024-02-21T03:42:37;22.40;39.10
6540;DHT22;50344;51.142;16.892;2024-02-21T03:45:03;22.40;39.00
6540;DHT22;50344;51.142;16.892;2024-02-21T03:47:29;22.40;39.00
6540;DHT22;50344;51.142;16.892;2024-02-21T03:49:54;22.40;38.90
6540;DHT22;50344;51.142;16.892;2024-02-21T03:52:20;22.40;39.00
6540;DHT22;50344;51.142;16.892;2024-02-21T03:54:45;22.40;38.90
6540;DHT22;50344;51.142;16.892;2024-02-21T03:57:11;22.40;39.00
6540;DHT22;50344;51.142;16.892;2024-02-21T03:59:37;22.40;39.00
6540;DHT22;50344;51.142;16.892;2024-02-21T04:02:05;22.40;38.90
6540;DHT22;50344;51.142;16.892;2024-02-21T04:04:34;22.40;38.90
6540;DHT22;50344;51.142;16.892;2024-02-21T04:07:00;22.40;38.90
6540;DHT22;50344;51.142;16.892;2024-02-21T04:09:25;22.40;38.90
6540;DHT22;50344;51.142;16.892;2024-02-21T04:11:51;22.40;38.80
6540;DHT22;50344;51.142;16.892;2024-02-21T04:14:17;22.40;38.80
6540;DHT22;50344;51.142;16.892;2024-02-21T04:16:42;22.40;38.90
6540;DHT22;50344;51.142;16.892;2024-02-21T04:19:08;22.40;38.80
6540;DHT22;50344;51.142;16.892;2024-02-21T04:21:34;22.40;38.90
6540;DHT22;50344;51.142;16.892;2024-02-21T04:24:00;22.40;38.80
6540;DHT22;50344;51.142;16.892;2024-02-21T04:26:27;22.40;38.80
6540;DHT22;50344;51.142;16.892;2024-02-21T04:28:52;22.40;38.90
6540;DHT22;50344;51.142;16.892;2024-02-21T04:31:18;22.40;38.80
6540;DHT22;50344;51.142;16.892;2024-02-21T04:33:43;22.40;38.80
6540;DHT22;50344;51.142;16.892;2024-02-21T04:36:09;22.40;38.80
6540;DHT22;50344;51.142;16.892;2024-02-21T04:38:35;22.40;38.90
6540;DHT22;50344;51.142;16.892;2024-02-21T04:41:01;22.40;38.80
6540;DHT22;50344;51.142;16.892;2024-02-21T04:43:26;22.40;38.90
6540;DHT22;50344;51.142;16.892;2024-02-21T04:45:52;22.40;38.90
6540;DHT22;50344;51.142;16.892;2024-02-21T04:48:19;22.40;38.80
6540;DHT22;50344;51.142;16.892;2024-02-21T04:50:44;22.30;38.70
6540;DHT22;50344;51.142;16.892;2024-02-21T04:53:10;22.30;38.80
6540;DHT22;50344;51.142;16.892;2024-02-21T04:55:35;22.40;38.80
6540;DHT22;50344;51.142;16.892;2024-02-21T04:58:01;22.30;38.70
6540;DHT22;50344;51.142;16.892;2024-02-21T05:00:27;22.30;38.60
6540;DHT22;50344;51.142;16.892;2024-02-21T05:02:53;22.40;38.70
6540;DHT22;50344;51.142;16.892;2024-02-21T05:05:18;22.40;38.80
6540;DHT22;50344;51.142;16.892;2024-02-21T05:07:44;22.40;38.70
6540;DHT22;50344;51.142;16.892;2024-02-21T05:10:10;22.40;38.70
6540;DHT22;50344;51.142;16.892;2024-02-21T05:12:36;22.30;38.80
6540;DHT22;50344;51.142;16.892;2024-02-21T05:15:02;22.30;38.70
6540;DHT22;50344;51.142;16.892;2024-02-21T05:17:28;22.30;38.70
6540;DHT22;50344;51.142;16.892;2024-02-21T05:19:53;22.40;38.90
6540;DHT22;50344;51.142;16.892;2024-02-21T05:22:19;22.40;38.80
6540;DHT22;50344;51.142;16.892;2024-02-21T05:24:45;22.40;38.70
6540;DHT22;50344;51.142;16.892;2024-02-21T05:27:10;22.40;38.70
6540;DHT22;50344;51.142;16.892;2024-02-21T05:29:36;22.30;38.60
6540;DHT22;50344;51.142;16.892;2024-02-21T05:32:01;22.30;38.60
6540;DHT22;50344;51.142;16.892;2024-02-21T05:34:27;22.30;38.80
6540;DHT22;50344;51.142;16.892;2024-02-21T05:36:53;22.30;39.40
6540;DHT22;50344;51.142;16.892;2024-02-21T05:39:19;22.30;38.70
6540;DHT22;50344;51.142;16.892;2024-02-21T05:41:45;22.30;38.90
6540;DHT22;50344;51.142;16.892;2024-02-21T05:44:10;22.30;39.00
6540;DHT22;50344;51.142;16.892;2024-02-21T05:46:36;22.30;38.80
6540;DHT22;50344;51.142;16.892;2024-02-21T05:49:02;22.30;38.80
6540;DHT22;50344;51.142;16.892;2024-02-21T05:51:27;22.30;38.80
6540;DHT22;50344;51.142;16.892;2024-02-21T05:53:53;22.30;39.40
6540;DHT22;50344;51.142;16.892;2024-02-21T05:56:18;22.30;39.80
6540;DHT22;50344;51.142;16.892;2024-02-21T05:58:44;22.30;39.30
6540;DHT22;50344;51.142;16.892;2024-02-21T06:01:10;22.30;39.80
6540;DHT22;50344;51.142;16.892;2024-02-21T06:03:35;22.30;39.50
6540;DHT22;50344;51.142;16.892;2024-02-21T06:06:04;22.30;39.60
6540;DHT22;50344;51.142;16.892;2024-02-21T06:08:30;22.30;39.90
6540;DHT22;50344;51.142;16.892;2024-02-21T06:10:56;22.30;40.40
6540;DHT22;50344;51.142;16.892;2024-02-21T06:13:22;22.30;40.30
6540;DHT22;50344;51.142;16.892;2024-02-21T06:15:47;22.30;40.00
6540;DHT22;50344;51.142;16.892;2024-02-21T06:18:14;22.30;40.00
6540;DHT22;50344;51.142;16.892;2024-02-21T06:20:40;22.30;40.00
6540;DHT22;50344;51.142;16.892;2024-02-21T06:23:06;22.30;40.50
6540;DHT22;50344;51.142;16.892;2024-02-21T06:25:32;22.30;40.20
6540;DHT22;50344;51.142;16.892;2024-02-21T06:27:57;22.40;40.40
6540;DHT22;50344;51.142;16.892;2024-02-21T06:30:23;22.40;40.50
6540;DHT22;50344;51.142;16.892;2024-02-21T06:32:48;22.40;40.80
6540;DHT22;50344;51.142;16.892;2024-02-21T06:35:14;22.30;40.30
6540;DHT22;50344;51.142;16.892;2024-02-21T06:37:39;22.40;40.80
6540;DHT22;50344;51.142;16.892;2024-02-21T06:40:05;22.30;40.60
6540;DHT22;50344;51.142;16.892;2024-02-21T06:42:31;22.30;40.70
6540;DHT22;50344;51.142;16.892;2024-02-21T06:44:57;22.30;40.90
6540;DHT22;50344;51.142;16.892;2024-02-21T06:47:22;22.30;41.10
6540;DHT22;50344;51.142;16.892;2024-02-21T06:49:48;22.30;40.90
6540;DHT22;50344;51.142;16.892;2024-02-21T06:52:14;22.40;41.50
6540;DHT22;50344;51.142;16.892;2024-02-21T06:54:42;22.30;41.20
6540;DHT22;50344;51.142;16.892;2024-02-21T06:57:08;22.30;41.40
6540;DHT22;50344;51.142;16.892;2024-02-21T06:59:33;22.30;41.00
6540;DHT22;50344;51.142;16.892;2024-02-21T07:01:59;22.30;41.20
6540;DHT22;50344;51.142;16.892;2024-02-21T07:04:26;22.30;41.10
6540;DHT22;50344;51.142;16.892;2024-02-21T07:06:52;22.30;41.30
6540;DHT22;50344;51.142;16.892;2024-02-21T07:09:18;22.30;41.10
6540;DHT22;50344;51.142;16.892;2024-02-21T07:11:43;22.40;41.30
6540;DHT22;50344;51.142;16.892;2024-02-21T07:14:09;22.30;41.10
6540;DHT22;50344;51.142;16.892;2024-02-21T07:16:34;22.40;41.20
6540;DHT22;50344;51.142;16.892;2024-02-21T07:19:00;22.40;41.00
6540;DHT22;50344;51.142;16.892;2024-02-21T07:21:26;22.40;40.80
6540;DHT22;50344;51.142;16.892;2024-02-21T07:23:51;22.40;40.80
6540;DHT22;50344;51.142;16.892;2024-02-21T07:26:17;22.40;40.60
6540;DHT22;50344;51.142;16.892;2024-02-21T07:28:42;22.40;40.60
6540;DHT22;50344;51.142;16.892;2024-02-21T07:31:08;22.40;40.40
6540;DHT22;50344;51.142;16.892;2024-02-21T07:33:33;22.40;40.30
6540;DHT22;50344;51.142;16.892;2024-02-21T07:36:01;22.40;40.20
6540;DHT22;50344;51.142;16.892;2024-02-21T07:38:26;22.40;40.10
6540;DHT22;50344;51.142;16.892;2024-02-21T07:40:52;22.40;40.10
6540;DHT22;50344;51.142;16.892;2024-02-21T07:43:17;22.40;40.10
6540;DHT22;50344;51.142;16.892;2024-02-21T07:45:43;22.40;40.10
6540;DHT22;50344;51.142;16.892;2024-02-21T07:48:08;22.40;40.00
6540;DHT22;50344;51.142;16.892;2024-02-21T07:50:34;22.40;40.00
6540;DHT22;50344;51.142;16.892;2024-02-21T07:52:59;22.40;39.90
6540;DHT22;50344;51.142;16.892;2024-02-21T07:55:25;22.40;39.90
6540;DHT22;50344;51.142;16.892;2024-02-21T07:57:51;22.40;39.80
6540;DHT22;50344;51.142;16.892;2024-02-21T08:00:16;22.40;39.80
6540;DHT22;50344;51.142;16.892;2024-02-21T08:02:47;22.40;40.50
6540;DHT22;50344;51.142;16.892;2024-02-21T08:05:13;22.40;39.70
6540;DHT22;50344;51.142;16.892;2024-02-21T08:07:38;22.40;39.70
6540;DHT22;50344;51.142;16.892;2024-02-21T08:10:04;22.40;39.60
6540;DHT22;50344;51.142;16.892;2024-02-21T08:12:32;22.40;39.70
6540;DHT22;50344;51.142;16.892;2024-02-21T08:14:58;22.40;39.50
6540;DHT22;50344;51.142;16.892;2024-02-21T08:17:23;22.40;39.50
6540;DHT22;50344;51.142;16.892;2024-02-21T08:19:49;22.40;39.50
6540;DHT22;50344;51.142;16.892;2024-02-21T08:22:15;22.70;39.70
6540;DHT22;50344;51.142;16.892;2024-02-21T08:24:40;22.40;39.30
6540;DHT22;50344;51.142;16.892;2024-02-21T08:27:06;22.40;39.40
6540;DHT22;50344;51.142;16.892;2024-02-21T08:29:31;22.40;39.30
6540;DHT22;50344;51.142;16.892;2024-02-21T08:31:57;22.40;39.30
6540;DHT22;50344;51.142;16.892;2024-02-21T08:34:22;22.40;39.30
6540;DHT22;50344;51.142;16.892;2024-02-21T08:36:48;22.40;39.20
6540;DHT22;50344;51.142;16.892;2024-02-21T08:39:13;22.30;39.20
6540;DHT22;50344;51.142;16.892;2024-02-21T08:41:42;22.30;39.10
6540;DHT22;50344;51.142;16.892;2024-02-21T08:44:08;22.30;39.10
6540;DHT22;50344;51.142;16.892;2024-02-21T08:46:33;22.30;39.10
6540;DHT22;50344;51.142;16.892;2024-02-21T08:48:59;22.40;39.20
6540;DHT22;50344;51.142;16.892;2024-02-21T08:51:24;22.40;39.10
6540;DHT22;50344;51.142;16.892;2024-02-21T08:53:50;22.10;38.90
6540;DHT22;50344;51.142;16.892;2024-02-21T08:56:17;22.30;39.00
6540;DHT22;50344;51.142;16.892;2024-02-21T08:58:43;22.40;39.00
6540;DHT22;50344;51.142;16.892;2024-02-21T09:01:08;22.30;39.00
6540;DHT22;50344;51.142;16.892;2024-02-21T09:03:37;22.30;38.90
6540;DHT22;50344;51.142;16.892;2024-02-21T09:06:03;22.30;39.00
6540;DHT22;50344;51.142;16.892;2024-02-21T09:08:29;22.30;38.90
6540;DHT22;50344;51.142;16.892;2024-02-21T09:10:55;22.30;38.80
6540;DHT22;50344;51.142;16.892;2024-02-21T09:13:20;22.40;39.00
6540;DHT22;50344;51.142;16.892;2024-02-21T09:15:47;22.30;38.70
6540;DHT22;50344;51.142;16.892;2024-02-21T09:18:13;22.30;38.80
6540;DHT22;50344;51.142;16.892;2024-02-21T09:20:38;22.30;38.80
6540;DHT22;50344;51.142;16.892;2024-02-21T09:23:04;22.30;38.70
6540;DHT22;50344;51.142;16.892;2024-02-21T09:25:29;22.30;38.70
6540;DHT22;50344;51.142;16.892;2024-02-21T09:27:57;21.90;38.30
6540;DHT22;50344;51.142;16.892;2024-02-21T09:30:23;22.30;38.60
6540;DHT22;50344;51.142;16.892;2024-02-21T09:32:49;22.40;38.70
6540;DHT22;50344;51.142;16.892;2024-02-21T09:35:14;22.40;38.70
6540;DHT22;50344;51.142;16.892;2024-02-21T09:37:40;22.30;39.30
6540;DHT22;50344;51.142;16.892;2024-02-21T09:40:06;22.30;38.50
6540;DHT22;50344;51.142;16.892;2024-02-21T09:42:41;22.30;38.50
6540;DHT22;50344;51.142;16.892;2024-02-21T09:50:13;22.30;38.40
6540;DHT22;50344;51.142;16.892;2024-02-21T09:52:39;22.30;38.40
6540;DHT22;50344;51.142;16.892;2024-02-21T09:55:06;22.30;38.40
6540;DHT22;50344;51.142;16.892;2024-02-21T09:57:33;22.30;38.40
6540;DHT22;50344;51.142;16.892;2024-02-21T09:59:59;22.30;38.30
6540;DHT22;50344;51.142;16.892;2024-02-21T10:02:25;22.30;38.30
6540;DHT22;50344;51.142;16.892;2024-02-21T10:04:51;22.30;38.30
6540;DHT22;50344;51.142;16.892;2024-02-21T10:07:16;22.30;38.30
6540;DHT22;50344;51.142;16.892;2024-02-21T10:09:44;22.30;38.30
6540;DHT22;50344;51.142;16.892;2024-02-21T10:12:13;22.30;38.30
6540;DHT22;50344;51.142;16.892;2024-02-21T10:14:38;22.30;38.30
6540;DHT22;50344;51.142;16.892;2024-02-21T10:17:04;22.30;38.10
6540;DHT22;50344;51.142;16.892;2024-02-21T10:19:34;22.30;38.20
6540;DHT22;50344;51.142;16.892;2024-02-21T10:24:34;22.30;38.10
6540;DHT22;50344;51.142;16.892;2024-02-21T10:27:07;22.30;38.10
6540;DHT22;50344;51.142;16.892;2024-02-21T10:29:36;22.30;38.10
6540;DHT22;50344;51.142;16.892;2024-02-21T10:32:11;22.30;38.00
6540;DHT22;50344;51.142;16.892;2024-02-21T10:34:37;22.30;38.00
6540;DHT22;50344;51.142;16.892;2024-02-21T10:37:03;22.30;37.90
6540;DHT22;50344;51.142;16.892;2024-02-21T10:39:32;22.30;37.80
6540;DHT22;50344;51.142;16.892;2024-02-21T10:42:02;22.30;37.80
6540;DHT22;50344;51.142;16.892;2024-02-21T10:44:33;22.30;37.80
6540;DHT22;50344;51.142;16.892;2024-02-21T10:46:59;22.30;37.80
6540;DHT22;50344;51.142;16.892;2024-02-21T10:49:27;22.30;37.70
6540;DHT22;50344;51.142;16.892;2024-02-21T10:51:59;22.30;37.70
6540;DHT22;50344;51.142;16.892;2024-02-21T10:54:38;22.30;37.70
6540;DHT22;50344;51.142;16.892;2024-02-21T10:57:05;22.30;37.70
6540;DHT22;50344;51.142;16.892;2024-02-21T10:59:30;22.30;37.80
6540;DHT22;50344;51.142;16.892;2024-02-21T11:01:57;22.30;37.70
6540;DHT22;50344;51.142;16.892;2024-02-21T11:04:23;22.30;37.70
6540;DHT22;50344;51.142;16.892;2024-02-21T11:06:49;22.30;37.70
6540;DHT22;50344;51.142;16.892;2024-02-21T11:09:15;22.30;37.70
6540;DHT22;50344;51.142;16.892;2024-02-21T11:11:41;22.30;37.70
6540;DHT22;50344;51.142;16.892;2024-02-21T11:14:08;22.30;37.70
6540;DHT22;50344;51.142;16.892;2024-02-21T11:16:38;22.30;37.70
6540;DHT22;50344;51.142;16.892;2024-02-21T11:19:05;22.30;37.70
6540;DHT22;50344;51.142;16.892;2024-02-21T11:21:37;22.30;37.70
6540;DHT22;50344;51.142;16.892;2024-02-21T11:24:03;22.30;37.70
6540;DHT22;50344;51.142;16.892;2024-02-21T11:26:29;22.30;37.70
6540;DHT22;50344;51.142;16.892;2024-02-21T11:28:58;22.30;37.70
6540;DHT22;50344;51.142;16.892;2024-02-21T11:31:25;22.30;37.70
6540;DHT22;50344;51.142;16.892;2024-02-21T11:33:52;22.30;37.80
6540;DHT22;50344;51.142;16.892;2024-02-21T11:36:25;22.30;37.70
6540;DHT22;50344;51.142;16.892;2024-02-21T11:38:51;22.30;37.70
6540;DHT22;50344;51.142;16.892;2024-02-21T11:41:16;22.30;37.80
6540;DHT22;50344;51.142;16.892;2024-02-21T11:43:42;22.30;37.70
6540;DHT22;50344;51.142;16.892;2024-02-21T11:46:07;22.30;37.70
6540;DHT22;50344;51.142;16.892;2024-02-21T11:48:33;22.30;37.70
6540;DHT22;50344;51.142;16.892;2024-02-21T11:50:58;22.30;37.70
6540;DHT22;50344;51.142;16.892;2024-02-21T11:53:26;22.30;37.70
6540;DHT22;50344;51.142;16.892;2024-02-21T11:55:56;22.30;37.70
6540;DHT22;50344;51.142;16.892;2024-02-21T11:58:22;22.30;37.70
6540;DHT22;50344;51.142;16.892;2024-02-21T12:00:48;22.30;37.70
6540;DHT22;50344;51.142;16.892;2024-02-21T12:03:14;22.30;37.80
6540;DHT22;50344;51.142;16.892;2024-02-21T12:05:40;22.30;37.70
6540;DHT22;50344;51.142;16.892;2024-02-21T12:08:06;22.30;37.70
6540;DHT22;50344;51.142;16.892;2024-02-21T12:10:32;22.60;38.00
6540;DHT22;50344;51.142;16.892;2024-02-21T12:13:05;22.30;37.70
6540;DHT22;50344;51.142;16.892;2024-02-21T12:15:31;22.30;37.70
6540;DHT22;50344;51.142;16.892;2024-02-21T12:17:56;22.30;37.70
6540;DHT22;50344;51.142;16.892;2024-02-21T12:20:22;22.30;37.80
6540;DHT22;50344;51.142;16.892;2024-02-21T12:22:49;22.30;37.80
6540;DHT22;50344;51.142;16.892;2024-02-21T12:25:18;22.30;37.70
6540;DHT22;50344;51.142;16.892;2024-02-21T12:27:45;22.30;37.70
6540;DHT22;50344;51.142;16.892;2024-02-21T12:30:10;22.30;37.70
6540;DHT22;50344;51.142;16.892;2024-02-21T12:32:36;22.30;37.80
6540;DHT22;50344;51.142;16.892;2024-02-21T12:35:02;22.30;37.70
6540;DHT22;50344;51.142;16.892;2024-02-21T12:37:30;22.30;37.70
6540;DHT22;50344;51.142;16.892;2024-02-21T12:39:55;22.30;37.70
6540;DHT22;50344;51.142;16.892;2024-02-21T12:42:21;22.20;37.70
6540;DHT22;50344;51.142;16.892;2024-02-21T12:44:48;22.20;37.70
6540;DHT22;50344;51.142;16.892;2024-02-21T12:47:14;22.20;37.70
6540;DHT22;50344;51.142;16.892;2024-02-21T12:49:40;22.20;37.70
6540;DHT22;50344;51.142;16.892;2024-02-21T12:52:05;22.20;37.70
6540;DHT22;50344;51.142;16.892;2024-02-21T12:54:31;22.20;37.70
6540;DHT22;50344;51.142;16.892;2024-02-21T12:56:56;22.20;37.70
6540;DHT22;50344;51.142;16.892;2024-02-21T12:59:22;22.30;37.70
6540;DHT22;50344;51.142;16.892;2024-02-21T13:01:48;22.20;37.60
6540;DHT22;50344;51.142;16.892;2024-02-21T13:04:14;22.20;37.60
6540;DHT22;50344;51.142;16.892;2024-02-21T13:06:39;22.20;37.70
6540;DHT22;50344;51.142;16.892;2024-02-21T13:09:05;22.20;37.60
6540;DHT22;50344;51.142;16.892;2024-02-21T13:11:36;22.30;37.60
6540;DHT22;50344;51.142;16.892;2024-02-21T13:14:03;22.30;37.60
6540;DHT22;50344;51.142;16.892;2024-02-21T13:16:28;22.20;37.60
6540;DHT22;50344;51.142;16.892;2024-02-21T13:18:54;22.20;37.50
6540;DHT22;50344;51.142;16.892;2024-02-21T13:21:19;22.20;37.40
6540;DHT22;50344;51.142;16.892;2024-02-21T13:23:45;22.20;37.40
6540;DHT22;50344;51.142;16.892;2024-02-21T13:26:10;22.30;37.40
6540;DHT22;50344;51.142;16.892;2024-02-21T13:28:36;22.20;37.40
6540;DHT22;50344;51.142;16.892;2024-02-21T13:31:02;22.30;37.40
6540;DHT22;50344;51.142;16.892;2024-02-21T13:33:28;22.20;37.30
6540;DHT22;50344;51.142;16.892;2024-02-21T13:35:54;22.20;37.40
6540;DHT22;50344;51.142;16.892;2024-02-21T13:38:19;22.20;37.40
6540;DHT22;50344;51.142;16.892;2024-02-21T13:40:45;22.20;37.30
6540;DHT22;50344;51.142;16.892;2024-02-21T13:43:11;22.20;37.30
6540;DHT22;50344;51.142;16.892;2024-02-21T13:45:37;22.20;37.40
6540;DHT22;50344;51.142;16.892;2024-02-21T13:48:02;22.20;37.30
6540;DHT22;50344;51.142;16.892;2024-02-21T13:50:31;22.20;37.30
6540;DHT22;50344;51.142;16.892;2024-02-21T13:52:57;22.20;37.20
6540;DHT22;50344;51.142;16.892;2024-02-21T13:55:23;22.20;37.20
6540;DHT22;50344;51.142;16.892;2024-02-21T13:57:51;22.20;37.20
6540;DHT22;50344;51.142;16.892;2024-02-21T14:00:17;22.20;37.20
6540;DHT22;50344;51.142;16.892;2024-02-21T14:02:43;22.20;37.20
6540;DHT22;50344;51.142;16.892;2024-02-21T14:05:09;22.20;37.20
6540;DHT22;50344;51.142;16.892;2024-02-21T14:07:35;22.20;37.20
6540;DHT22;50344;51.142;16.892;2024-02-21T14:10:00;22.20;37.20
6540;DHT22;50344;51.142;16.892;2024-02-21T14:12:26;22.20;37.10
6540;DHT22;50344;51.142;16.892;2024-02-21T14:14:51;22.20;37.10
6540;DHT22;50344;51.142;16.892;2024-02-21T14:17:17;22.20;37.20
6540;DHT22;50344;51.142;16.892;2024-02-21T14:19:43;22.20;37.20
6540;DHT22;50344;51.142;16.892;2024-02-21T14:22:08;22.20;37.20
6540;DHT22;50344;51.142;16.892;2024-02-21T14:24:36;22.20;37.20
6540;DHT22;50344;51.142;16.892;2024-02-21T14:27:02;22.20;37.10
6540;DHT22;50344;51.142;16.892;2024-02-21T14:29:28;22.20;37.10
6540;DHT22;50344;51.142;16.892;2024-02-21T14:31:54;22.20;37.10
6540;DHT22;50344;51.142;16.892;2024-02-21T14:34:20;22.20;37.10
6540;DHT22;50344;51.142;16.892;2024-02-21T14:36:45;22.20;37.00
6540;DHT22;50344;51.142;16.892;2024-02-21T14:39:11;22.20;37.00
6540;DHT22;50344;51.142;16.892;2024-02-21T14:41:36;22.20;37.00
6540;DHT22;50344;51.142;16.892;2024-02-21T14:44:02;22.20;37.00
6540;DHT22;50344;51.142;16.892;2024-02-21T14:46:28;22.20;37.00
6540;DHT22;50344;51.142;16.892;2024-02-21T14:48:54;22.20;37.00
6540;DHT22;50344;51.142;16.892;2024-02-21T14:51:20;22.20;37.00
6540;DHT22;50344;51.142;16.892;2024-02-21T14:53:45;22.20;37.00
6540;DHT22;50344;51.142;16.892;2024-02-21T14:56:17;22.20;37.00
6540;DHT22;50344;51.142;16.892;2024-02-21T14:58:43;22.20;36.90
6540;DHT22;50344;51.142;16.892;2024-02-21T15:01:08;22.20;36.80
6540;DHT22;50344;51.142;16.892;2024-02-21T15:03:34;22.20;36.80
6540;DHT22;50344;51.142;16.892;2024-02-21T15:06:01;22.20;36.80
6540;DHT22;50344;51.142;16.892;2024-02-21T15:08:27;22.20;36.80
6540;DHT22;50344;51.142;16.892;2024-02-21T15:10:53;22.20;36.80
6540;DHT22;50344;51.142;16.892;2024-02-21T15:13:18;22.20;36.90
6540;DHT22;50344;51.142;16.892;2024-02-21T15:15:44;22.20;36.90
6540;DHT22;50344;51.142;16.892;2024-02-21T15:18:10;22.20;36.90
6540;DHT22;50344;51.142;16.892;2024-02-21T15:20:35;22.30;36.80
6540;DHT22;50344;51.142;16.892;2024-02-21T15:23:02;22.20;36.80
6540;DHT22;50344;51.142;16.892;2024-02-21T15:25:30;22.20;36.80
6540;DHT22;50344;51.142;16.892;2024-02-21T15:27:56;22.20;36.70
6540;DHT22;50344;51.142;16.892;2024-02-21T15:30:21;22.20;36.60